Terminal Aerodrome Forecast
Issued by NWS Cleveland, OH

Home | Current Version | Previous Version | Graphics & Text | Print | Product List | Glossary Off
Versions: 1 2 3 4 5 6 7 8 9 10 11 12 13 14 15 16 17 18 19 20 21 22

000
FTUS41 KCLE 282322
TAFMFD
TAF
KMFD 282322Z 2900/2924 36008KT 6SM BR OVC008
     FM291000 03006KT 4SM BR OVC006
     FM291400 04010KT P6SM SCT008 OVC015
     FM291700 04009KT P6SM SCT020 BKN250=

USA.gov is the U.S. government's official web portal to all federal, state and local government web resources and services.